Nearby METAR Reports

 

LFLC - Clermont/Aulnat, France
Distance from station: S 1mi, 2km
Updated: Mon, 16-Dec-2019 2:00pm CET
Clear
Clear
 Wind from S
Wind: S 35 mph , 56 km/h, Gust: 46 mph , 74 km/h
Temperature: 61°F , 16°C
Dew Point: 45°F , 7°C
Humidity: 55%
Barometer: 29.62 inHg , 1003 hPa
Summary: Clear
Visibility: greater than 7 miles , 10 km
2019/12/16 13:00 LFLC 161300Z AUTO 18030G40KT CAVOK 16/07 Q1003 NOSIG
LFMH - St Etienne/Bouth, France
Distance from station: ESE 57mi, 92km
Updated: Mon, 16-Dec-2019 2:00pm CET
Overcast
Overcast
 Wind from S
Wind: S 17 mph , 28 km/h, Gust: 32 mph , 52 km/h
Temperature: 59°F , 15°C
Dew Point: 45°F , 7°C
Humidity: 59%
Barometer: 29.74 inHg , 1007 hPa
Clouds: Overcast
Visibility: 6 miles , 10 km
Cloud details: Overcast 4000 ft
2019/12/16 13:00 LFMH 161300Z AUTO 19015G28KT 140V260 9999 OVC040 15/07 Q1007 NOSIG
 
LFLN - Saint Yan, France
Distance from station: NE 60mi, 96km
Updated: Mon, 16-Dec-2019 2:00pm CET
Clear
Clear
 Wind from SSE
Wind: SSE 15 mph , 24 km/h
Temperature: 59°F , 15°C
Dew Point: 45°F , 7°C
Humidity: 59%
Barometer: 29.65 inHg , 1004 hPa
Summary: Clear
Visibility: greater than 7 miles , 10 km
2019/12/16 13:00 LFLN 161300Z AUTO 16013KT CAVOK 15/07 Q1004 TEMPO 18020G30KT
LFLW - Aurillac (aut), France
Distance from station: SSW 72mi, 116km
Updated: Mon, 16-Dec-2019 2:00pm CET

 Wind from SE
Wind: SE 26 mph , 43 km/h, Gust: 45 mph , 72 km/h
Temperature: 54°F , 12°C
Dew Point: 43°F , 6°C
Humidity: 67%
Barometer: 29.62 inHg , 1003 hPa
Visibility: 6 miles , 10 km
2019/12/16 13:00 LFLW 161300Z AUTO 14023G39KT 9999 // ////// 12/06 Q1003
 
LFQG - Nevers/Fourchamb, France
Distance from station: N 84mi, 135km
Updated: Mon, 16-Dec-2019 2:00pm CET
Clear
Clear
 Wind from ESE
Wind: ESE 9 mph , 15 km/h
Temperature: 55°F , 13°C
Dew Point: 46°F , 8°C
Humidity: 72%
Barometer: 29.62 inHg , 1003 hPa
Summary: Clear
Visibility: greater than 7 miles , 10 km
2019/12/16 13:00 LFQG 161300Z AUTO 12008KT CAVOK 13/08 Q1003
LFLY - Lyon/Bron, France
Distance from station: E 86mi, 138km
Updated: Mon, 16-Dec-2019 2:00pm CET
Clear
Clear
 Wind from S
Wind: S 28 mph , 44 km/h, Gust: 40 mph , 65 km/h
Temperature: 61°F , 16°C
Dew Point: 46°F , 8°C
Humidity: 59%
Barometer: 29.74 inHg , 1007 hPa
Summary: Clear
Visibility: greater than 7 miles , 10 km
2019/12/16 13:00 LFLY 161300Z AUTO 18024G35KT CAVOK 16/08 Q1007 TEMPO 18025G45KT
 
LFOA - Avord (fafb), France
Distance from station: NNW 90mi, 145km
Updated: Mon, 16-Dec-2019 2:00pm CET
Clear
Clear
 Wind from SE
Wind: SE 8 mph , 13 km/h
Temperature: 55°F , 13°C
Dew Point: 46°F , 8°C
Humidity: 72%
Barometer: 29.59 inHg , 1002 hPa
Summary: Clear
Visibility: greater than 7 miles , 10 km
2019/12/16 13:00 LFOA 161300Z AUTO 14007KT CAVOK 13/08 Q1002 NOSIG
LFLL - Lyon/Satolas, France
Distance from station: E 92mi, 147km
Updated: Mon, 16-Dec-2019 2:00pm CET
Clear
Clear
 Wind from S
Wind: S 30 mph , 48 km/h, Gust: 46 mph , 74 km/h
Temperature: 59°F , 15°C
Dew Point: 46°F , 8°C
Humidity: 63%
Barometer: 29.74 inHg , 1007 hPa
Summary: Clear
Visibility: greater than 7 miles , 10 km
2019/12/16 13:00 LFLL 161300Z 19026G40KT CAVOK 15/08 Q1007 TEMPO 18025G45KT
 
LFBL - Limoges/Bellegar, France
Distance from station: W 97mi, 155km
Updated: Mon, 16-Dec-2019 2:00pm CET
Clear
Clear
 Wind from SSE
Wind: SSE 15 mph , 24 km/h
Temperature: 57°F , 14°C
Dew Point: 46°F , 8°C
Humidity: 67%
Barometer: 29.56 inHg , 1001 hPa
Summary: Clear
Visibility: greater than 7 miles , 10 km
2019/12/16 13:00 LFBL 161300Z AUTO 16013KT CAVOK 14/08 Q1001 BECMG 16016G28KT
LFSL - Brive/Souillac, France
Distance from station: WSW 97mi, 156km
Updated: Mon, 16-Dec-2019 2:00pm CET
Clear
Clear
 Wind from SE
Wind: SE 14 mph , 22 km/h
Temperature: 59°F , 15°C
Dew Point: 48°F , 9°C
Humidity: 68%
Barometer: 29.59 inHg , 1002 hPa
Summary: Clear
Visibility: greater than 7 miles , 10 km
2019/12/16 13:00 LFSL 161300Z AUTO 14012KT 120V190 CAVOK 15/09 Q1002 TEMPO 14018G35KT
 
LFLX - Chateauroux/Deol, France
Distance from station: NW 101mi, 163km
Updated: Mon, 16-Dec-2019 2:00pm CET
Clear
Clear
 Wind from SE
Wind: SE 6 mph , 9 km/h
Temperature: 57°F , 14°C
Dew Point: 50°F , 10°C
Humidity: 77%
Barometer: 29.56 inHg , 1001 hPa
Summary: Clear
Visibility: greater than 7 miles , 10 km
2019/12/16 13:00 LFLX 161300Z AUTO 13005KT CAVOK 14/10 Q1001 NOSIG
LFCR - Rodez/Marcillac, France
Distance from station: SSW 103mi, 165km
Updated: Mon, 16-Dec-2019 2:00pm CET
Overcast
Overcast
 Wind from ESE
Wind: ESE 31 mph , 50 km/h, Gust: 45 mph , 72 km/h
Temperature: 54°F , 12°C
Dew Point: 45°F , 7°C
Humidity: 72%
Barometer: 29.68 inHg , 1005 hPa
Clouds: Overcast
Visibility: 6 miles , 10 km
Cloud details: Few Clouds 2100 ft
Overcast 20000 ft
2019/12/16 13:00 LFCR 161300Z AUTO 12027G39KT 9999 FEW021 OVC200 12/07 Q1005 NOSIG
 
LFLU - Valence-Chabeuil, France
Distance from station: ESE 107mi, 172km
Updated: Mon, 16-Dec-2019 2:00pm CET
Few Clouds
Few Clouds
 Wind from SSW
Wind: SSW 25 mph , 41 km/h
Temperature: 57°F , 14°C
Dew Point: 50°F , 10°C
Humidity: 77%
Barometer: 29.83 inHg , 1010 hPa
Clouds: Few Clouds
Visibility: 6 miles , 10 km
Cloud details: Few Clouds 5600 ft
2019/12/16 13:00 LFLU 161300Z AUTO 21022KT 9999 FEW056 14/10 Q1010
LFLS - Grenoble/St. Geo, France
Distance from station: ESE 108mi, 174km
Updated: Mon, 16-Dec-2019 2:00pm CET
Mostly Cloudy
Mostly Cloudy
 Wind from WSW
Wind: WSW 13 mph , 20 km/h
Temperature: 55°F , 13°C
Dew Point: 46°F , 8°C
Humidity: 72%
Barometer: 29.83 inHg , 1010 hPa
Clouds: Mostly Cloudy
Visibility: 6 miles , 10 km
Cloud details: Partly Cloudy 3000 ft
Mostly Cloudy 3500 ft
2019/12/16 13:00 LFLS 161300Z AUTO 25011KT 9999 SCT030 BKN035 13/08 Q1010 NOSIG
 
LFYR - Romorantin/Pruni, France
Distance from station: NW 128mi, 205km
Updated: Mon, 16-Dec-2019 2:00pm CET
Clear
Clear
 Wind from ESE
Wind: ESE 5 mph , 7 km/h
Temperature: 54°F , 12°C
Dew Point: 48°F , 9°C
Humidity: 82%
Barometer: 29.56 inHg , 1001 hPa
Summary: Clear
Visibility: greater than 7 miles , 10 km
2019/12/16 13:00 LFYR 161300Z AUTO 12004KT 090V160 CAVOK 12/09 Q1001 NOSIG
LFLB - Chambery/Aix Bai, France
Distance from station: E 131mi, 210km
Updated: Mon, 16-Dec-2019 2:00pm CET
Clear
Clear
 Wind from varies
Wind: varies 2 mph , 4 km/h
Temperature: 45°F , 7°C
Dew Point: 41°F , 5°C
Humidity: 87%
Barometer: 29.83 inHg , 1010 hPa
Summary: Clear
Visibility: greater than 7 miles , 10 km
2019/12/16 13:00 LFLB 161300Z AUTO VRB02KT CAVOK 07/05 Q1010 NOSIG
 
LFSD - Dijon/Longvic(Fa, France
Distance from station: NE 136mi, 219km
Updated: Mon, 16-Dec-2019 2:00pm CET
Clear
Clear
 Wind from S
Wind: S 18 mph , 30 km/h
Temperature: 57°F , 14°C
Dew Point: 46°F , 8°C
Humidity: 67%
Barometer: 29.68 inHg , 1005 hPa
Summary: Clear
Visibility: greater than 7 miles , 10 km
2019/12/16 13:00 LFSD 161300Z AUTO 19016KT CAVOK 14/08 Q1005
LFGJ - Dole Tavaux, France
Distance from station: NE 139mi, 223km
Updated: Mon, 16-Dec-2019 2:00pm CET
Clear
Clear
 Wind from SSW
Wind: SSW 16 mph , 26 km/h
Temperature: 59°F , 15°C
Dew Point: 46°F , 8°C
Humidity: 63%
Barometer: 29.71 inHg , 1006 hPa
Summary: Clear
Visibility: greater than 7 miles , 10 km
2019/12/16 13:00 LFGJ 161300Z AUTO 20014KT CAVOK 15/08 Q1006 TEMPO 21020G30KT
 
LFLP - Annecy/Meythet, France
Distance from station: E 141mi, 226km
Updated: Mon, 16-Dec-2019 2:00pm CET
Clear
Clear
 Wind from varies
Wind: varies 2 mph , 4 km/h
Temperature: 45°F , 7°C
Dew Point: 43°F , 6°C
Humidity: 93%
Barometer: 29.8 inHg , 1009 hPa
Summary: Clear
Visibility: greater than 7 miles , 10 km
2019/12/16 13:00 LFLP 161300Z AUTO VRB02KT CAVOK 07/06 Q1009 NOSIG
LFBU - Brie Champniers, France
Distance from station: W 142mi, 229km
Updated: Mon, 16-Dec-2019 2:00pm CET
Clear
Clear
 Wind from SSE
Wind: SSE 15 mph , 24 km/h
Temperature: 59°F , 15°C
Dew Point: 48°F , 9°C
Humidity: 68%
Barometer: 29.53 inHg , 1000 hPa
Summary: Clear
Visibility: greater than 7 miles , 10 km
2019/12/16 13:00 LFBU 161300Z AUTO 15013KT 120V180 CAVOK 15/09 Q1000 NOSIG

Metar display script from Saratoga-Weather.org